AAL317 EGLL-KLAX
Flight info
| Callsign | AAL317 |
|---|---|
| Flight time | N/A |
| Altitude | 32000 |
| Route | UMLAT T418 WELIN T420 AKUPA UY250 KEFTE DCT NALAN/M085F320 DCT 64N010W/M084F340 68N020W 70N030W 71N040W 70N060W DCT ADSAM/N0493F340 DCT 69N080W/N0494F360 65N098W 64N100W 60N107W 55N113W 50N118W/N0476F380 DCT EPH/N0480F370 DCT FMG DCT GENNE J7 REBRG IRNMN2 |
| Aircraft | B77W/H-SDE1E2E3FGHIJ2J3J4J5M1RWXY/LB1D1 |
Departure
| Time | N/A |
|---|---|
| Airport | London Heathrow Airport (EGLL) |
Arrival
| Time | 2026-04-20 02:13 |
|---|---|
| Airport | Los Angeles International Airport (KLAX) |
| Time | Latitude | Longitude | Altitude | Speed | Heading |
|---|---|---|---|---|---|
| 2026-04-20 00:00 | 47.76474 | -119.22361 | 37945 ft | 437 kts | 201° |
| 2026-04-20 00:00 | 47.73608 | -119.23858 | 37943 ft | 436 kts | 201° |
| 2026-04-20 00:01 | 47.67910 | -119.26823 | 37946 ft | 436 kts | 201° |
| 2026-04-20 00:02 | 47.59315 | -119.31288 | 37951 ft | 436 kts | 201° |
| 2026-04-20 00:02 | 47.53580 | -119.34260 | 37939 ft | 436 kts | 201° |
| 2026-04-20 00:03 | 47.47849 | -119.37222 | 37939 ft | 436 kts | 201° |
| 2026-04-20 00:03 | 47.42116 | -119.40177 | 37939 ft | 436 kts | 200° |
| 2026-04-20 00:04 | 47.36243 | -119.42454 | 37933 ft | 437 kts | 191° |
| 2026-04-20 00:04 | 47.30159 | -119.42595 | 37953 ft | 440 kts | 179° |
| 2026-04-20 00:05 | 47.24071 | -119.42241 | 37939 ft | 439 kts | 184° |
| 2026-04-20 00:05 | 47.17930 | -119.42660 | 37940 ft | 439 kts | 186° |
| 2026-04-20 00:06 | 47.11865 | -119.43160 | 37937 ft | 441 kts | 185° |
| 2026-04-20 00:06 | 47.05724 | -119.43489 | 37934 ft | 441 kts | 184° |
| 2026-04-20 00:07 | 46.99578 | -119.43710 | 37922 ft | 442 kts | 184° |
| 2026-04-20 00:07 | 46.93420 | -119.43899 | 37928 ft | 443 kts | 183° |
| 2026-04-20 00:08 | 46.87254 | -119.44093 | 37928 ft | 444 kts | 184° |
| 2026-04-20 00:08 | 46.81073 | -119.44295 | 37929 ft | 444 kts | 184° |
| 2026-04-20 00:09 | 46.74902 | -119.44495 | 37928 ft | 444 kts | 184° |
| 2026-04-20 00:09 | 46.68755 | -119.44697 | 37927 ft | 444 kts | 183° |
| 2026-04-20 00:10 | 46.62590 | -119.44900 | 37924 ft | 442 kts | 183° |
| 2026-04-20 00:10 | 46.56438 | -119.45100 | 37924 ft | 442 kts | 183° |
| 2026-04-20 00:11 | 46.50284 | -119.45304 | 37915 ft | 442 kts | 183° |
| 2026-04-20 00:11 | 46.44143 | -119.45504 | 37917 ft | 441 kts | 183° |
| 2026-04-20 00:12 | 46.38000 | -119.45703 | 37917 ft | 441 kts | 183° |
| 2026-04-20 00:12 | 46.31902 | -119.45903 | 37916 ft | 441 kts | 183° |
| 2026-04-20 00:13 | 46.25767 | -119.46102 | 37916 ft | 440 kts | 183° |
| 2026-04-20 00:13 | 46.19643 | -119.46299 | 37919 ft | 440 kts | 183° |
| 2026-04-20 00:14 | 46.13516 | -119.46499 | 37916 ft | 440 kts | 183° |
| 2026-04-20 00:14 | 46.07378 | -119.46698 | 37918 ft | 441 kts | 183° |
| 2026-04-20 00:15 | 46.01251 | -119.46893 | 37914 ft | 441 kts | 183° |
| 2026-04-20 00:15 | 45.95101 | -119.47091 | 37909 ft | 442 kts | 183° |
| 2026-04-20 00:16 | 45.88953 | -119.47289 | 37906 ft | 442 kts | 183° |
| 2026-04-20 00:16 | 45.82843 | -119.47483 | 37908 ft | 441 kts | 183° |
| 2026-04-20 00:17 | 45.76696 | -119.47678 | 37906 ft | 441 kts | 183° |
| 2026-04-20 00:17 | 45.70554 | -119.47872 | 37910 ft | 441 kts | 183° |
| 2026-04-20 00:18 | 45.64425 | -119.48067 | 37919 ft | 440 kts | 183° |
| 2026-04-20 00:18 | 45.58340 | -119.48259 | 37929 ft | 439 kts | 183° |
| 2026-04-20 00:19 | 45.52228 | -119.48453 | 37938 ft | 439 kts | 183° |
| 2026-04-20 00:19 | 45.46105 | -119.48647 | 37944 ft | 439 kts | 183° |
| 2026-04-20 00:20 | 45.39993 | -119.48840 | 37952 ft | 439 kts | 183° |
| 2026-04-20 00:20 | 45.33871 | -119.49031 | 37947 ft | 440 kts | 183° |
| 2026-04-20 00:21 | 45.27790 | -119.49221 | 37944 ft | 440 kts | 183° |
| 2026-04-20 00:21 | 45.21669 | -119.49412 | 37950 ft | 440 kts | 183° |
| 2026-04-20 00:22 | 45.15539 | -119.49604 | 37942 ft | 440 kts | 183° |
| 2026-04-20 00:22 | 45.09415 | -119.49794 | 37947 ft | 440 kts | 183° |
| 2026-04-20 00:23 | 45.03284 | -119.49985 | 37951 ft | 440 kts | 183° |
| 2026-04-20 00:23 | 44.97199 | -119.50173 | 37937 ft | 440 kts | 183° |
| 2026-04-20 00:24 | 44.91076 | -119.50363 | 37934 ft | 440 kts | 183° |
| 2026-04-20 00:24 | 44.84955 | -119.50552 | 37939 ft | 439 kts | 183° |
| 2026-04-20 00:25 | 44.78845 | -119.50741 | 37931 ft | 439 kts | 183° |
| 2026-04-20 00:25 | 44.72732 | -119.50929 | 37935 ft | 438 kts | 183° |
| 2026-04-20 00:26 | 44.66644 | -119.51115 | 37933 ft | 437 kts | 183° |
| 2026-04-20 00:26 | 44.60548 | -119.51300 | 37936 ft | 438 kts | 183° |
| 2026-04-20 00:27 | 44.54456 | -119.51483 | 37936 ft | 438 kts | 183° |
| 2026-04-20 00:27 | 44.48389 | -119.51670 | 37936 ft | 438 kts | 183° |
| 2026-04-20 00:28 | 44.42285 | -119.51857 | 37932 ft | 438 kts | 183° |
| 2026-04-20 00:28 | 44.36189 | -119.52044 | 37935 ft | 438 kts | 183° |
| 2026-04-20 00:29 | 44.31121 | -119.52197 | 37943 ft | 438 kts | 183° |
| 2026-04-20 00:29 | 44.25023 | -119.52379 | 37944 ft | 438 kts | 183° |
| 2026-04-20 00:30 | 44.18927 | -119.52562 | 37941 ft | 438 kts | 183° |
| 2026-04-20 00:30 | 44.12833 | -119.52747 | 37947 ft | 438 kts | 183° |
| 2026-04-20 00:31 | 44.06737 | -119.52931 | 37948 ft | 438 kts | 183° |
| 2026-04-20 00:31 | 44.00671 | -119.53112 | 37952 ft | 438 kts | 183° |
| 2026-04-20 00:32 | 43.94568 | -119.53296 | 37940 ft | 439 kts | 183° |
| 2026-04-20 00:32 | 43.88466 | -119.53479 | 37956 ft | 438 kts | 183° |
| 2026-04-20 00:33 | 43.82366 | -119.53661 | 37957 ft | 438 kts | 183° |
| 2026-04-20 00:33 | 43.76260 | -119.53842 | 37952 ft | 438 kts | 183° |
| 2026-04-20 00:34 | 43.70157 | -119.54022 | 37957 ft | 438 kts | 183° |
| 2026-04-20 00:34 | 43.64065 | -119.54203 | 37958 ft | 438 kts | 183° |
| 2026-04-20 00:35 | 43.58012 | -119.54381 | 37957 ft | 438 kts | 183° |
| 2026-04-20 00:35 | 43.51929 | -119.54559 | 37949 ft | 438 kts | 183° |
| 2026-04-20 00:36 | 43.45830 | -119.54741 | 37956 ft | 437 kts | 183° |
| 2026-04-20 00:36 | 43.39736 | -119.54918 | 37949 ft | 437 kts | 183° |
| 2026-04-20 00:37 | 43.33648 | -119.55097 | 37957 ft | 438 kts | 183° |
| 2026-04-20 00:37 | 43.27593 | -119.55275 | 37952 ft | 438 kts | 183° |
| 2026-04-20 00:38 | 43.21496 | -119.55452 | 37960 ft | 438 kts | 183° |
| 2026-04-20 00:38 | 43.15401 | -119.55629 | 37949 ft | 438 kts | 183° |
| 2026-04-20 00:39 | 43.09312 | -119.55807 | 37959 ft | 437 kts | 183° |
| 2026-04-20 00:39 | 43.03218 | -119.55984 | 37953 ft | 437 kts | 183° |
| 2026-04-20 00:40 | 42.97164 | -119.56159 | 37955 ft | 437 kts | 183° |
| 2026-04-20 00:40 | 42.91088 | -119.56336 | 37959 ft | 437 kts | 184° |
| 2026-04-20 00:41 | 42.85009 | -119.56511 | 37957 ft | 437 kts | 184° |
| 2026-04-20 00:41 | 42.78919 | -119.56686 | 37949 ft | 437 kts | 184° |
| 2026-04-20 00:42 | 42.72834 | -119.56861 | 37952 ft | 437 kts | 184° |
| 2026-04-20 00:42 | 42.66753 | -119.57036 | 37960 ft | 437 kts | 184° |
| 2026-04-20 00:43 | 42.60664 | -119.57210 | 37953 ft | 437 kts | 184° |
| 2026-04-20 00:43 | 42.54574 | -119.57383 | 37953 ft | 438 kts | 184° |
| 2026-04-20 00:44 | 42.48516 | -119.57556 | 37957 ft | 438 kts | 184° |
| 2026-04-20 00:44 | 42.42421 | -119.57731 | 37956 ft | 438 kts | 184° |
| 2026-04-20 00:45 | 42.36320 | -119.57905 | 37968 ft | 438 kts | 184° |
| 2026-04-20 00:45 | 42.30228 | -119.58077 | 37966 ft | 438 kts | 184° |
| 2026-04-20 00:46 | 42.24125 | -119.58249 | 37963 ft | 437 kts | 184° |
| 2026-04-20 00:46 | 42.18038 | -119.58419 | 37969 ft | 438 kts | 184° |
| 2026-04-20 00:47 | 42.11945 | -119.58591 | 37963 ft | 438 kts | 184° |
| 2026-04-20 00:47 | 42.05879 | -119.58762 | 37956 ft | 438 kts | 184° |
| 2026-04-20 00:48 | 41.99780 | -119.58932 | 37947 ft | 438 kts | 184° |
| 2026-04-20 00:48 | 41.93685 | -119.59103 | 37960 ft | 438 kts | 184° |
| 2026-04-20 00:49 | 41.87598 | -119.59275 | 37948 ft | 438 kts | 184° |
| 2026-04-20 00:49 | 41.81504 | -119.59445 | 37949 ft | 437 kts | 184° |
| 2026-04-20 00:50 | 41.75417 | -119.59614 | 37951 ft | 438 kts | 184° |
| 2026-04-20 00:50 | 41.69326 | -119.59784 | 37951 ft | 438 kts | 184° |
| 2026-04-20 00:51 | 41.63269 | -119.59952 | 37949 ft | 438 kts | 184° |
| 2026-04-20 00:51 | 41.57173 | -119.60120 | 37954 ft | 437 kts | 184° |
| 2026-04-20 00:52 | 41.51086 | -119.60288 | 37952 ft | 437 kts | 184° |
| 2026-04-20 00:52 | 41.44997 | -119.60458 | 37948 ft | 438 kts | 184° |
| 2026-04-20 00:53 | 41.38900 | -119.60628 | 37942 ft | 438 kts | 184° |
| 2026-04-20 00:53 | 41.32799 | -119.60795 | 37939 ft | 439 kts | 184° |
| 2026-04-20 00:54 | 41.26693 | -119.60962 | 37951 ft | 439 kts | 184° |
| 2026-04-20 00:54 | 41.20574 | -119.61129 | 37948 ft | 440 kts | 184° |
| 2026-04-20 00:55 | 41.14494 | -119.61296 | 37945 ft | 440 kts | 184° |
| 2026-04-20 00:55 | 41.08372 | -119.61463 | 37946 ft | 440 kts | 184° |
| 2026-04-20 00:56 | 41.02215 | -119.61628 | 37948 ft | 439 kts | 184° |
| 2026-04-20 00:56 | 40.96098 | -119.61794 | 37937 ft | 440 kts | 184° |
| 2026-04-20 00:57 | 40.90032 | -119.61962 | 37947 ft | 439 kts | 184° |
| 2026-04-20 00:57 | 40.83914 | -119.62129 | 37943 ft | 439 kts | 184° |
| 2026-04-20 00:58 | 40.77790 | -119.62292 | 37949 ft | 440 kts | 184° |
| 2026-04-20 00:58 | 40.71667 | -119.62457 | 37945 ft | 440 kts | 184° |
| 2026-04-20 00:59 | 40.65535 | -119.62623 | 37952 ft | 441 kts | 184° |
| 2026-04-20 00:59 | 40.59385 | -119.62789 | 37941 ft | 442 kts | 184° |
| 2026-04-20 01:00 | 40.53240 | -119.62952 | 37948 ft | 441 kts | 184° |
| 2026-04-20 01:00 | 40.47143 | -119.63115 | 37947 ft | 441 kts | 184° |
| 2026-04-20 01:01 | 40.41000 | -119.63281 | 37952 ft | 441 kts | 184° |
| 2026-04-20 01:01 | 40.34858 | -119.63444 | 37950 ft | 442 kts | 184° |
| 2026-04-20 01:02 | 40.28706 | -119.63607 | 37953 ft | 442 kts | 184° |
| 2026-04-20 01:02 | 40.22542 | -119.63774 | 37948 ft | 443 kts | 184° |
| 2026-04-20 01:03 | 40.16381 | -119.63938 | 37947 ft | 443 kts | 184° |
| 2026-04-20 01:03 | 40.10214 | -119.64101 | 37954 ft | 443 kts | 184° |
| 2026-04-20 01:04 | 40.04053 | -119.64263 | 37962 ft | 443 kts | 184° |
| 2026-04-20 01:04 | 39.97896 | -119.64424 | 37950 ft | 442 kts | 184° |
| 2026-04-20 01:05 | 39.91771 | -119.64587 | 37959 ft | 443 kts | 184° |
| 2026-04-20 01:05 | 39.85617 | -119.64749 | 37954 ft | 443 kts | 184° |
| 2026-04-20 01:06 | 39.79454 | -119.64910 | 37955 ft | 443 kts | 184° |
| 2026-04-20 01:06 | 39.73293 | -119.65071 | 37964 ft | 443 kts | 184° |
| 2026-04-20 01:07 | 39.67133 | -119.65232 | 37958 ft | 443 kts | 184° |
| 2026-04-20 01:07 | 39.60966 | -119.65395 | 37952 ft | 444 kts | 184° |
| 2026-04-20 01:08 | 39.54792 | -119.65556 | 37948 ft | 444 kts | 184° |
| 2026-04-20 01:08 | 39.48606 | -119.65606 | 37944 ft | 445 kts | 182° |
| 2026-04-20 01:09 | 39.42413 | -119.65405 | 37933 ft | 445 kts | 181° |
| 2026-04-20 01:09 | 39.36217 | -119.65179 | 37934 ft | 445 kts | 182° |
| 2026-04-20 01:10 | 39.30022 | -119.64994 | 37949 ft | 445 kts | 182° |
| 2026-04-20 01:10 | 39.20723 | -119.64758 | 37952 ft | 446 kts | 182° |
| 2026-04-20 01:11 | 39.14561 | -119.64603 | 37954 ft | 446 kts | 182° |
| 2026-04-20 01:11 | 39.08354 | -119.64444 | 37954 ft | 446 kts | 182° |
| 2026-04-20 01:12 | 39.02130 | -119.64283 | 37942 ft | 447 kts | 182° |
| 2026-04-20 01:12 | 38.95905 | -119.64124 | 37951 ft | 447 kts | 182° |
| 2026-04-20 01:13 | 38.89676 | -119.63964 | 37957 ft | 448 kts | 182° |
| 2026-04-20 01:13 | 38.83435 | -119.63805 | 37943 ft | 448 kts | 182° |
| 2026-04-20 01:14 | 38.77193 | -119.63644 | 37943 ft | 449 kts | 182° |
| 2026-04-20 01:14 | 38.70984 | -119.63487 | 37937 ft | 449 kts | 182° |
| 2026-04-20 01:15 | 38.64722 | -119.63328 | 37936 ft | 450 kts | 182° |
| 2026-04-20 01:15 | 38.58463 | -119.63169 | 37938 ft | 450 kts | 182° |
| 2026-04-20 01:16 | 38.52200 | -119.63011 | 37939 ft | 450 kts | 182° |
| 2026-04-20 01:16 | 38.45935 | -119.62851 | 37936 ft | 450 kts | 182° |
| 2026-04-20 01:17 | 38.39672 | -119.62694 | 37941 ft | 450 kts | 182° |
| 2026-04-20 01:17 | 38.34464 | -119.62564 | 37948 ft | 450 kts | 182° |
| 2026-04-20 01:18 | 38.28197 | -119.62409 | 37983 ft | 450 kts | 182° |
| 2026-04-20 01:18 | 38.21919 | -119.62254 | 37979 ft | 451 kts | 182° |
| 2026-04-20 01:19 | 38.15643 | -119.62094 | 37993 ft | 451 kts | 182° |
| 2026-04-20 01:19 | 38.09355 | -119.61936 | 37986 ft | 452 kts | 182° |
| 2026-04-20 01:20 | 38.03057 | -119.61780 | 37990 ft | 453 kts | 182° |
| 2026-04-20 01:20 | 37.96751 | -119.61622 | 37949 ft | 454 kts | 182° |
| 2026-04-20 01:21 | 37.90439 | -119.61464 | 37957 ft | 454 kts | 182° |
| 2026-04-20 01:21 | 37.84171 | -119.61309 | 37966 ft | 453 kts | 182° |
| 2026-04-20 01:22 | 37.77852 | -119.61155 | 37969 ft | 454 kts | 182° |
| 2026-04-20 01:22 | 37.71542 | -119.60998 | 37962 ft | 453 kts | 182° |
| 2026-04-20 01:23 | 37.65227 | -119.60843 | 37969 ft | 453 kts | 182° |
| 2026-04-20 01:23 | 37.58926 | -119.60688 | 37960 ft | 453 kts | 182° |
| 2026-04-20 01:24 | 37.52608 | -119.60531 | 37958 ft | 454 kts | 182° |
| 2026-04-20 01:24 | 37.46293 | -119.60377 | 37944 ft | 454 kts | 182° |
| 2026-04-20 01:25 | 37.40016 | -119.60222 | 37944 ft | 454 kts | 182° |
| 2026-04-20 01:25 | 37.33686 | -119.60068 | 37931 ft | 454 kts | 182° |
| 2026-04-20 01:26 | 37.27362 | -119.59913 | 37918 ft | 455 kts | 182° |
| 2026-04-20 01:26 | 37.21038 | -119.59759 | 37900 ft | 455 kts | 182° |
| 2026-04-20 01:27 | 37.14693 | -119.59605 | 37889 ft | 456 kts | 182° |
| 2026-04-20 01:27 | 37.08354 | -119.59471 | 37877 ft | 455 kts | 184° |
| 2026-04-20 01:28 | 37.02025 | -119.59560 | 37868 ft | 455 kts | 185° |
| 2026-04-20 01:28 | 36.95693 | -119.59731 | 37865 ft | 455 kts | 185° |
| 2026-04-20 01:29 | 36.89403 | -119.59879 | 37874 ft | 455 kts | 185° |
| 2026-04-20 01:29 | 36.83064 | -119.59999 | 37871 ft | 456 kts | 185° |
| 2026-04-20 01:30 | 36.76714 | -119.60109 | 37863 ft | 457 kts | 185° |
| 2026-04-20 01:30 | 36.70343 | -119.60220 | 37859 ft | 458 kts | 185° |
| 2026-04-20 01:31 | 36.63964 | -119.60334 | 37857 ft | 458 kts | 185° |
| 2026-04-20 01:31 | 36.57628 | -119.60446 | 37853 ft | 458 kts | 185° |
| 2026-04-20 01:32 | 36.51240 | -119.60560 | 37851 ft | 459 kts | 185° |
| 2026-04-20 01:32 | 36.44858 | -119.60674 | 37863 ft | 459 kts | 185° |
| 2026-04-20 01:33 | 36.38462 | -119.60789 | 37860 ft | 459 kts | 185° |
| 2026-04-20 01:33 | 36.32069 | -119.60901 | 37861 ft | 460 kts | 185° |
| 2026-04-20 01:34 | 36.25702 | -119.61013 | 37862 ft | 460 kts | 185° |
| 2026-04-20 01:34 | 36.19294 | -119.61126 | 37859 ft | 461 kts | 185° |
| 2026-04-20 01:35 | 36.12877 | -119.61239 | 37869 ft | 460 kts | 185° |
| 2026-04-20 01:35 | 36.06470 | -119.61352 | 37874 ft | 460 kts | 185° |
| 2026-04-20 01:36 | 36.00058 | -119.61465 | 37870 ft | 460 kts | 185° |
| 2026-04-20 01:36 | 35.96910 | -119.61731 | 37847 ft | 447 kts | 197° |
| 2026-04-20 01:36 | 35.93987 | -119.62843 | 37886 ft | 446 kts | 204° |
| 2026-04-20 01:37 | 35.88140 | -119.65567 | 37882 ft | 452 kts | 202° |
| 2026-04-20 01:37 | 35.82045 | -119.67717 | 37882 ft | 460 kts | 198° |
| 2026-04-20 01:38 | 35.75875 | -119.69818 | 37857 ft | 456 kts | 200° |
| 2026-04-20 01:38 | 35.69860 | -119.72067 | 37865 ft | 449 kts | 201° |
| 2026-04-20 01:39 | 35.63856 | -119.74215 | 37880 ft | 450 kts | 197° |
| 2026-04-20 01:39 | 35.57692 | -119.75693 | 37880 ft | 452 kts | 193° |
| 2026-04-20 01:40 | 35.51475 | -119.76987 | 37876 ft | 454 kts | 194° |
| 2026-04-20 01:40 | 35.45302 | -119.78432 | 37885 ft | 455 kts | 195° |
| 2026-04-20 01:41 | 35.39057 | -119.79966 | 37911 ft | 455 kts | 195° |
| 2026-04-20 01:41 | 35.32838 | -119.81415 | 37922 ft | 454 kts | 189° |
| 2026-04-20 01:42 | 35.29695 | -119.81241 | 37952 ft | 464 kts | 173° |
| 2026-04-20 01:42 | 35.26551 | -119.80118 | 37281 ft | 484 kts | 159° |
| 2026-04-20 01:42 | 35.23690 | -119.77865 | 36552 ft | 491 kts | 145° |
| 2026-04-20 01:42 | 35.21065 | -119.75166 | 35744 ft | 493 kts | 142° |
| 2026-04-20 01:43 | 35.18482 | -119.72448 | 34836 ft | 486 kts | 143° |
| 2026-04-20 01:43 | 35.15863 | -119.69875 | 33927 ft | 485 kts | 146° |
| 2026-04-20 01:43 | 35.13133 | -119.67413 | 32960 ft | 489 kts | 147° |
| 2026-04-20 01:43 | 35.10326 | -119.64951 | 31977 ft | 504 kts | 147° |
| 2026-04-20 01:44 | 35.07474 | -119.62422 | 30903 ft | 509 kts | 146° |
| 2026-04-20 01:44 | 35.04594 | -119.59807 | 30074 ft | 520 kts | 145° |
| 2026-04-20 01:44 | 35.01700 | -119.57126 | 29403 ft | 526 kts | 144° |
| 2026-04-20 01:44 | 34.98797 | -119.54406 | 28819 ft | 525 kts | 144° |
| 2026-04-20 01:45 | 34.95921 | -119.51708 | 27953 ft | 519 kts | 144° |
| 2026-04-20 01:45 | 34.93069 | -119.49050 | 27086 ft | 508 kts | 145° |
| 2026-04-20 01:45 | 34.90325 | -119.46514 | 26242 ft | 483 kts | 145° |
| 2026-04-20 01:45 | 34.87699 | -119.44141 | 25628 ft | 457 kts | 146° |
| 2026-04-20 01:46 | 34.85217 | -119.41934 | 25050 ft | 441 kts | 146° |
| 2026-04-20 01:46 | 34.82701 | -119.39714 | 24463 ft | 453 kts | 146° |
| 2026-04-20 01:46 | 34.80154 | -119.37458 | 24342 ft | 452 kts | 146° |
| 2026-04-20 01:46 | 34.77621 | -119.35199 | 24256 ft | 450 kts | 146° |
| 2026-04-20 01:47 | 34.75123 | -119.32965 | 24125 ft | 440 kts | 146° |
| 2026-04-20 01:47 | 34.72676 | -119.30796 | 23912 ft | 425 kts | 147° |
| 2026-04-20 01:47 | 34.70335 | -119.28752 | 23529 ft | 409 kts | 147° |
| 2026-04-20 01:47 | 34.68047 | -119.26763 | 23234 ft | 397 kts | 147° |
| 2026-04-20 01:48 | 34.65842 | -119.24843 | 22607 ft | 385 kts | 147° |
| 2026-04-20 01:48 | 34.63680 | -119.22965 | 21837 ft | 379 kts | 147° |
| 2026-04-20 01:48 | 34.61536 | -119.21116 | 21092 ft | 374 kts | 147° |
| 2026-04-20 01:48 | 34.59473 | -119.19336 | 20683 ft | 364 kts | 147° |
| 2026-04-20 01:49 | 34.57411 | -119.17559 | 20238 ft | 363 kts | 147° |
| 2026-04-20 01:49 | 34.55356 | -119.15785 | 19802 ft | 361 kts | 147° |
| 2026-04-20 01:49 | 34.53323 | -119.13995 | 19368 ft | 358 kts | 146° |
| 2026-04-20 01:49 | 34.51323 | -119.12216 | 18935 ft | 356 kts | 146° |
| 2026-04-20 01:50 | 34.49332 | -119.10440 | 18506 ft | 354 kts | 146° |
| 2026-04-20 01:50 | 34.47350 | -119.08679 | 18089 ft | 352 kts | 146° |
| 2026-04-20 01:50 | 34.45370 | -119.06928 | 17636 ft | 351 kts | 146° |
| 2026-04-20 01:50 | 34.43399 | -119.05196 | 17198 ft | 348 kts | 146° |
| 2026-04-20 01:51 | 34.41440 | -119.03497 | 16817 ft | 345 kts | 147° |
| 2026-04-20 01:51 | 34.39490 | -119.01811 | 16400 ft | 343 kts | 147° |
| 2026-04-20 01:51 | 34.37571 | -119.00154 | 15963 ft | 342 kts | 146° |
| 2026-04-20 01:51 | 34.35642 | -118.98486 | 15536 ft | 340 kts | 146° |
| 2026-04-20 01:52 | 34.33727 | -118.96823 | 15121 ft | 338 kts | 146° |
| 2026-04-20 01:52 | 34.31846 | -118.95130 | 14712 ft | 336 kts | 144° |
| 2026-04-20 01:52 | 34.29984 | -118.93426 | 14297 ft | 334 kts | 144° |
| 2026-04-20 01:52 | 34.28130 | -118.91732 | 13877 ft | 332 kts | 144° |
| 2026-04-20 01:53 | 34.26289 | -118.90058 | 13448 ft | 330 kts | 144° |
| 2026-04-20 01:53 | 34.24456 | -118.88389 | 13053 ft | 328 kts | 144° |
| 2026-04-20 01:53 | 34.22645 | -118.86726 | 12641 ft | 326 kts | 144° |
| 2026-04-20 01:53 | 34.20870 | -118.85091 | 12495 ft | 316 kts | 144° |
| 2026-04-20 01:54 | 34.19144 | -118.83503 | 12267 ft | 309 kts | 144° |
| 2026-04-20 01:54 | 34.17452 | -118.81949 | 12023 ft | 302 kts | 144° |
| 2026-04-20 01:54 | 34.15810 | -118.80410 | 11791 ft | 294 kts | 142° |
| 2026-04-20 01:54 | 34.14313 | -118.78853 | 11445 ft | 283 kts | 139° |
| 2026-04-20 01:55 | 34.12859 | -118.77234 | 11076 ft | 280 kts | 138° |
| 2026-04-20 01:55 | 34.11431 | -118.75626 | 10692 ft | 281 kts | 138° |
| 2026-04-20 01:55 | 34.09993 | -118.74024 | 10324 ft | 282 kts | 139° |
| 2026-04-20 01:55 | 34.08564 | -118.72450 | 9964 ft | 282 kts | 139° |
| 2026-04-20 01:56 | 34.07110 | -118.70863 | 9656 ft | 281 kts | 139° |
| 2026-04-20 01:56 | 34.05664 | -118.69294 | 9411 ft | 277 kts | 139° |
| 2026-04-20 01:56 | 34.04237 | -118.67748 | 9148 ft | 274 kts | 139° |
| 2026-04-20 01:56 | 34.03077 | -118.65974 | 8820 ft | 273 kts | 112° |
| 2026-04-20 01:57 | 34.02693 | -118.63758 | 8613 ft | 268 kts | 96° |
| 2026-04-20 01:57 | 34.02555 | -118.61533 | 8367 ft | 264 kts | 96° |
| 2026-04-20 01:57 | 34.02363 | -118.59345 | 8102 ft | 260 kts | 98° |
| 2026-04-20 01:57 | 34.02141 | -118.57201 | 7842 ft | 257 kts | 98° |
| 2026-04-20 01:58 | 34.01922 | -118.55075 | 7588 ft | 253 kts | 98° |
| 2026-04-20 01:58 | 34.01713 | -118.52988 | 7379 ft | 249 kts | 98° |
| 2026-04-20 01:58 | 34.01517 | -118.50949 | 7230 ft | 241 kts | 98° |
| 2026-04-20 01:58 | 34.01327 | -118.48970 | 7068 ft | 234 kts | 98° |
| 2026-04-20 01:59 | 34.01138 | -118.47025 | 6940 ft | 235 kts | 98° |
| 2026-04-20 01:59 | 34.01044 | -118.45054 | 6822 ft | 238 kts | 85° |
| 2026-04-20 01:59 | 34.01352 | -118.43091 | 6711 ft | 244 kts | 77° |
| 2026-04-20 01:59 | 34.01756 | -118.41075 | 6605 ft | 244 kts | 78° |
| 2026-04-20 02:00 | 34.02131 | -118.39085 | 6458 ft | 243 kts | 79° |
| 2026-04-20 02:00 | 34.02483 | -118.37128 | 6343 ft | 242 kts | 79° |
| 2026-04-20 02:00 | 34.02813 | -118.35157 | 6201 ft | 238 kts | 83° |
| 2026-04-20 02:00 | 34.03024 | -118.33185 | 6073 ft | 237 kts | 85° |
| 2026-04-20 02:01 | 34.03209 | -118.31218 | 5953 ft | 236 kts | 85° |
| 2026-04-20 02:01 | 34.03397 | -118.29227 | 5653 ft | 244 kts | 85° |
| 2026-04-20 02:01 | 34.03598 | -118.27181 | 5198 ft | 244 kts | 83° |
| 2026-04-20 02:01 | 34.03844 | -118.25173 | 4736 ft | 239 kts | 83° |
| 2026-04-20 02:02 | 34.04097 | -118.23203 | 4284 ft | 238 kts | 83° |
| 2026-04-20 02:02 | 34.04353 | -118.21237 | 3878 ft | 236 kts | 82° |
| 2026-04-20 02:02 | 34.04608 | -118.19302 | 3682 ft | 229 kts | 82° |
| 2026-04-20 02:02 | 34.04854 | -118.17445 | 3614 ft | 223 kts | 82° |
| 2026-04-20 02:03 | 34.05103 | -118.15567 | 3608 ft | 230 kts | 82° |
| 2026-04-20 02:03 | 34.05356 | -118.13639 | 3582 ft | 234 kts | 82° |
| 2026-04-20 02:03 | 34.05612 | -118.11707 | 3591 ft | 232 kts | 82° |
| 2026-04-20 02:03 | 34.05866 | -118.09794 | 3582 ft | 230 kts | 83° |
| 2026-04-20 02:04 | 34.06115 | -118.07891 | 3579 ft | 228 kts | 82° |
| 2026-04-20 02:04 | 34.06368 | -118.06002 | 3577 ft | 228 kts | 82° |
| 2026-04-20 02:04 | 34.06609 | -118.04118 | 3570 ft | 226 kts | 88° |
| 2026-04-20 02:04 | 34.06329 | -118.02291 | 3581 ft | 221 kts | 122° |
| 2026-04-20 02:05 | 34.05318 | -118.01034 | 3570 ft | 207 kts | 156° |
| 2026-04-20 02:05 | 34.03965 | -118.00757 | 3620 ft | 198 kts | 190° |
| 2026-04-20 02:05 | 34.02579 | -118.00980 | 3570 ft | 201 kts | 173° |
| 2026-04-20 02:05 | 34.01259 | -118.00550 | 3606 ft | 200 kts | 169° |
| 2026-04-20 02:06 | 33.99895 | -118.00654 | 3588 ft | 200 kts | 205° |
| 2026-04-20 02:06 | 33.98837 | -118.01735 | 3604 ft | 203 kts | 233° |
| 2026-04-20 02:06 | 33.98059 | -118.03166 | 3577 ft | 203 kts | 237° |
| 2026-04-20 02:06 | 33.97421 | -118.04633 | 3567 ft | 196 kts | 252° |
| 2026-04-20 02:07 | 33.97121 | -118.06245 | 3601 ft | 199 kts | 257° |
| 2026-04-20 02:07 | 33.96890 | -118.07907 | 3599 ft | 202 kts | 259° |
| 2026-04-20 02:07 | 33.96757 | -118.09019 | 3593 ft | 203 kts | 260° |
| 2026-04-20 02:07 | 33.96573 | -118.10709 | 3579 ft | 202 kts | 261° |
| 2026-04-20 02:08 | 33.96403 | -118.12342 | 3606 ft | 191 kts | 261° |
| 2026-04-20 02:08 | 33.96240 | -118.13917 | 3583 ft | 189 kts | 261° |
| 2026-04-20 02:08 | 33.96079 | -118.15492 | 3598 ft | 189 kts | 261° |
| 2026-04-20 02:08 | 33.95917 | -118.17068 | 3521 ft | 192 kts | 261° |
| 2026-04-20 02:09 | 33.95752 | -118.18677 | 3255 ft | 192 kts | 261° |
| 2026-04-20 02:09 | 33.95591 | -118.20249 | 3001 ft | 185 kts | 261° |
| 2026-04-20 02:09 | 33.95440 | -118.21734 | 2758 ft | 172 kts | 261° |
| 2026-04-20 02:09 | 33.95297 | -118.23108 | 2530 ft | 160 kts | 261° |
| 2026-04-20 02:10 | 33.95160 | -118.24431 | 2344 ft | 159 kts | 261° |
| 2026-04-20 02:10 | 33.95027 | -118.25740 | 2153 ft | 156 kts | 261° |
| 2026-04-20 02:10 | 33.94892 | -118.27039 | 1941 ft | 156 kts | 262° |
| 2026-04-20 02:10 | 33.94759 | -118.28333 | 1726 ft | 155 kts | 262° |
| 2026-04-20 02:11 | 33.94626 | -118.29621 | 1517 ft | 154 kts | 262° |
| 2026-04-20 02:11 | 33.94495 | -118.30898 | 1316 ft | 153 kts | 263° |
| 2026-04-20 02:11 | 33.94366 | -118.32164 | 1114 ft | 152 kts | 262° |
| 2026-04-20 02:11 | 33.94236 | -118.33432 | 917 ft | 153 kts | 262° |
| 2026-04-20 02:12 | 33.94105 | -118.34698 | 711 ft | 152 kts | 263° |
| 2026-04-20 02:12 | 33.93981 | -118.35912 | 486 ft | 137 kts | 263° |
| 2026-04-20 02:12 | 33.93868 | -118.37025 | 271 ft | 134 kts | 262° |
| 2026-04-20 02:12 | 33.93740 | -118.38162 | 172 ft | 139 kts | 262° |
| 2026-04-20 02:13 | 33.93636 | -118.39280 | 102 ft | 126 kts | 259° |
| 2026-04-20 02:13 | 33.93537 | -118.40180 | 102 ft | 87 kts | 264° |
| 2026-04-20 02:13 | 33.93488 | -118.40722 | 98 ft | 51 kts | 264° |
| 2026-04-20 02:13 | 33.93496 | -118.41061 | 101 ft | 30 kts | 291° |
| 2026-04-20 02:14 | 33.93540 | -118.41225 | 99 ft | 7 kts | 291° |
| 2026-04-20 02:14 | 33.93554 | -118.41237 | 100 ft | 0 kts | 331° |
| 2026-04-20 02:17 | 33.93555 | -118.41238 | 99 ft | 3 kts | 331° |
| 2026-04-20 02:17 | 33.93658 | -118.41272 | 103 ft | 23 kts | 352° |
| 2026-04-20 02:18 | 33.93749 | -118.41242 | 101 ft | 14 kts | 67° |
| 2026-04-20 02:18 | 33.93767 | -118.41123 | 102 ft | 15 kts | 80° |
| 2026-04-20 02:18 | 33.93779 | -118.41000 | 98 ft | 15 kts | 86° |
| 2026-04-20 02:18 | 33.93791 | -118.40940 | 99 ft | 1 kts | 40° |
| 2026-04-20 02:19 | 33.93826 | -118.40935 | 101 ft | 10 kts | 6° |
| 2026-04-20 02:19 | 33.93873 | -118.40880 | 99 ft | 11 kts | 72° |
| 2026-04-20 02:19 | 33.93919 | -118.40817 | 99 ft | 9 kts | 9° |
| 2026-04-20 02:19 | 33.93979 | -118.40819 | 100 ft | 8 kts | 354° |
| 2026-04-20 02:20 | 33.94023 | -118.40839 | 99 ft | 0 kts | 308° |
| 2026-04-20 02:20 | 33.94024 | -118.40845 | 98 ft | 2 kts | 288° |
| 2026-04-20 02:20 | 33.94026 | -118.40871 | 98 ft | 4 kts | 271° |
| 2026-04-20 02:20 | 33.94024 | -118.40902 | 98 ft | 4 kts | 264° |
| 2026-04-20 02:21 | 33.94023 | -118.40926 | 98 ft | 0 kts | 264° |